PWSweather.com
Personal Weather Stations
Station Observations
KIDNAMPA57
Canyon County Idaho, Nampa, ID 83687

Canyon County IdahoNampa, ID 83687

Lat: 43.587235, Lon: -116.49831979999999

Elevation: 2615

Station Type: Davis Vantage Pro 2

www.rockinglweather.com

High Low Average
Temperature 35.1°F1.7°C 21.3°F-5.9°C 29.2°F-1.6°C
Dew Point 24.7°F-4.1°C 11.0°F-11.7°C 18.7°F-7.4°C
Winds 18.0 mph 29.0 kmh 1.0 mph 1.6 kmh 9.0 mph NW14.5 kmh NW
Wind Gusts 22.0 mph35.4 kmh 2.0 mph3.2 kmh 15.0 mph24.1 kmh
Humidity 79% 52% 65%
Pressure 30.24 in1024.0 mb 29.78 in1008.5 mb -
Precipitation 0.00 in0.0 mm - -
Hour Temp Dew Point Humidity Winds Wind Gusts Pressure Precip Precip Rate Daily Precip Total
12:00 AM 29.8°F-1.2°C 24.1°F-4.4°C 79% 5.0 mph NW8.0 kmh NW 6.0 mph9.7 kmh 29.76 in1007.8 mb 0.00 in0.0 mm 0.00 in0.0 mm 0.00 in0.0 mm
12:05 AM 29.6°F-1.3°C 23.9°F-4.5°C 79% 4.0 mph WNW6.4 kmh WNW 5.0 mph8.0 kmh 29.76 in1007.8 mb 0.00 in0.0 mm 0.00 in0.0 mm 0.00 in0.0 mm
12:10 AM 29.6°F-1.3°C 24.2°F-4.3°C 80% 2.0 mph WNW3.2 kmh WNW 5.0 mph8.0 kmh 29.76 in1007.8 mb 0.00 in0.0 mm 0.00 in0.0 mm 0.00 in0.0 mm
12:15 AM 29.7°F-1.3°C 24.3°F-4.3°C 80% 2.0 mph WNW3.2 kmh WNW 5.0 mph8.0 kmh 29.77 in1008.1 mb 0.00 in0.0 mm 0.00 in0.0 mm 0.00 in0.0 mm
12:20 AM 29.8°F-1.2°C 24.4°F-4.2°C 80% 2.0 mph WNW3.2 kmh WNW 2.0 mph3.2 kmh 29.77 in1008.1 mb 0.00 in0.0 mm 0.00 in0.0 mm 0.00 in0.0 mm
12:25 AM 30.0°F-1.1°C 24.6°F-4.1°C 80% 2.0 mph WNW3.2 kmh WNW 2.0 mph3.2 kmh 29.77 in1008.1 mb 0.00 in0.0 mm 0.00 in0.0 mm 0.00 in0.0 mm
12:30 AM 30.1°F-1.1°C 24.7°F-4.1°C 80% 2.0 mph WNW3.2 kmh WNW 2.0 mph3.2 kmh 29.77 in1008.1 mb 0.00 in0.0 mm 0.00 in0.0 mm 0.00 in0.0 mm
12:35 AM 30.2°F-1.0°C 25.1°F-3.8°C 81% 4.0 mph WNW6.4 kmh WNW 4.0 mph6.4 kmh 29.77 in1008.1 mb 0.00 in0.0 mm 0.00 in0.0 mm 0.00 in0.0 mm
12:40 AM 30.2°F-1.0°C 24.8°F-4.0°C 80% 4.0 mph NW6.4 kmh NW 8.0 mph12.9 kmh 29.77 in1008.1 mb 0.00 in0.0 mm 0.00 in0.0 mm 0.00 in0.0 mm
12:45 AM 30.3°F-0.9°C 24.9°F-3.9°C 80% 4.0 mph WNW6.4 kmh WNW 8.0 mph12.9 kmh 29.78 in1008.5 mb 0.00 in0.0 mm 0.00 in0.0 mm 0.00 in0.0 mm
12:50 AM 30.3°F-0.9°C 24.9°F-3.9°C 80% 4.0 mph NW6.4 kmh NW 6.0 mph9.7 kmh 29.78 in1008.5 mb 0.00 in0.0 mm 0.00 in0.0 mm 0.00 in0.0 mm
12:55 AM 30.4°F-0.9°C 25.0°F-3.9°C 80% 4.0 mph NW6.4 kmh NW 8.0 mph12.9 kmh 29.78 in1008.5 mb 0.00 in0.0 mm 0.00 in0.0 mm 0.00 in0.0 mm
01:00 AM 30.4°F-0.9°C 24.7°F-4.1°C 79% 6.0 mph NW9.7 kmh NW 9.0 mph14.5 kmh 29.78 in1008.5 mb 0.00 in0.0 mm 0.00 in0.0 mm 0.00 in0.0 mm
01:05 AM 30.4°F-0.9°C 24.7°F-4.1°C 79% 6.0 mph NW9.7 kmh NW 10.0 mph16.1 kmh 29.78 in1008.5 mb 0.00 in0.0 mm 0.00 in0.0 mm 0.00 in0.0 mm
01:10 AM 30.4°F-0.9°C 24.7°F-4.1°C 79% 4.0 mph NW6.4 kmh NW 10.0 mph16.1 kmh 29.78 in1008.5 mb 0.00 in0.0 mm 0.00 in0.0 mm 0.00 in0.0 mm
01:15 AM 30.4°F-0.9°C 24.7°F-4.1°C 79% 6.0 mph NW9.7 kmh NW 10.0 mph16.1 kmh 29.78 in1008.5 mb 0.00 in0.0 mm 0.00 in0.0 mm 0.00 in0.0 mm
01:20 AM 30.4°F-0.9°C 24.7°F-4.1°C 79% 5.0 mph NW8.0 kmh NW 9.0 mph14.5 kmh 29.78 in1008.5 mb 0.00 in0.0 mm 0.00 in0.0 mm 0.00 in0.0 mm
01:25 AM 30.4°F-0.9°C 24.4°F-4.2°C 78% 4.0 mph NW6.4 kmh NW 9.0 mph14.5 kmh 29.78 in1008.5 mb 0.00 in0.0 mm 0.00 in0.0 mm 0.00 in0.0 mm
01:30 AM 30.5°F-0.8°C 24.5°F-4.2°C 78% 6.0 mph NW9.7 kmh NW 9.0 mph14.5 kmh 29.79 in1008.8 mb 0.00 in0.0 mm 0.00 in0.0 mm 0.00 in0.0 mm
01:35 AM 30.5°F-0.8°C 24.2°F-4.3°C 77% 7.0 mph NW11.3 kmh NW 7.0 mph11.3 kmh 29.79 in1008.8 mb 0.00 in0.0 mm 0.00 in0.0 mm 0.00 in0.0 mm
01:40 AM 30.5°F-0.8°C 24.2°F-4.3°C 77% 8.0 mph NW12.9 kmh NW 11.0 mph17.7 kmh 29.79 in1008.8 mb 0.00 in0.0 mm 0.00 in0.0 mm 0.00 in0.0 mm
01:45 AM 30.5°F-0.8°C 24.2°F-4.3°C 77% 4.0 mph NW6.4 kmh NW 11.0 mph17.7 kmh 29.79 in1008.8 mb 0.00 in0.0 mm 0.00 in0.0 mm 0.00 in0.0 mm
01:50 AM 30.3°F-0.9°C 23.7°F-4.6°C 76% 6.0 mph NW9.7 kmh NW 12.0 mph19.3 kmh 29.79 in1008.8 mb 0.00 in0.0 mm 0.00 in0.0 mm 0.00 in0.0 mm
01:55 AM 30.2°F-1.0°C 23.9°F-4.5°C 77% 5.0 mph NW8.0 kmh NW 12.0 mph19.3 kmh 29.80 in1009.1 mb 0.00 in0.0 mm 0.00 in0.0 mm 0.00 in0.0 mm
02:00 AM 29.9°F-1.2°C 23.6°F-4.7°C 77% 3.0 mph NW4.8 kmh NW 12.0 mph19.3 kmh 29.80 in1009.1 mb 0.00 in0.0 mm 0.00 in0.0 mm 0.00 in0.0 mm
02:05 AM 29.7°F-1.3°C 23.7°F-4.6°C 78% 4.0 mph WNW6.4 kmh WNW 8.0 mph12.9 kmh 29.80 in1009.1 mb 0.00 in0.0 mm 0.00 in0.0 mm 0.00 in0.0 mm
02:10 AM 29.5°F-1.4°C 23.5°F-4.7°C 78% 3.0 mph NW4.8 kmh NW 9.0 mph14.5 kmh 29.80 in1009.1 mb 0.00 in0.0 mm 0.00 in0.0 mm 0.00 in0.0 mm
02:15 AM 29.3°F-1.5°C 23.3°F-4.8°C 78% 2.0 mph WNW3.2 kmh WNW 9.0 mph14.5 kmh 29.80 in1009.1 mb 0.00 in0.0 mm 0.00 in0.0 mm 0.00 in0.0 mm
02:20 AM 29.2°F-1.6°C 23.2°F-4.9°C 78% 3.0 mph WNW4.8 kmh WNW 9.0 mph14.5 kmh 29.80 in1009.1 mb 0.00 in0.0 mm 0.00 in0.0 mm 0.00 in0.0 mm
02:25 AM 29.0°F-1.7°C 23.0°F-5.0°C 78% 7.0 mph NW11.3 kmh NW 9.0 mph14.5 kmh 29.80 in1009.1 mb 0.00 in0.0 mm 0.00 in0.0 mm 0.00 in0.0 mm
02:30 AM 28.9°F-1.7°C 22.9°F-5.1°C 78% 4.0 mph NW6.4 kmh NW 9.0 mph14.5 kmh 29.80 in1009.1 mb 0.00 in0.0 mm 0.00 in0.0 mm 0.00 in0.0 mm
02:35 AM 28.8°F-1.8°C 22.8°F-5.1°C 78% 4.0 mph NW6.4 kmh NW 6.0 mph9.7 kmh 29.80 in1009.1 mb 0.00 in0.0 mm 0.00 in0.0 mm 0.00 in0.0 mm
02:40 AM 28.6°F-1.9°C 22.6°F-5.2°C 78% 5.0 mph W8.0 kmh W 7.0 mph11.3 kmh 29.80 in1009.1 mb 0.00 in0.0 mm 0.00 in0.0 mm 0.00 in0.0 mm
02:45 AM 28.5°F-1.9°C 22.5°F-5.3°C 78% 5.0 mph WNW8.0 kmh WNW 9.0 mph14.5 kmh 29.80 in1009.1 mb 0.00 in0.0 mm 0.00 in0.0 mm 0.00 in0.0 mm
02:50 AM 28.6°F-1.9°C 22.6°F-5.2°C 78% 3.0 mph WNW4.8 kmh WNW 9.0 mph14.5 kmh 29.80 in1009.1 mb 0.00 in0.0 mm 0.00 in0.0 mm 0.00 in0.0 mm
02:55 AM 28.6°F-1.9°C 22.3°F-5.4°C 77% 4.0 mph NW6.4 kmh NW 10.0 mph16.1 kmh 29.80 in1009.1 mb 0.00 in0.0 mm 0.00 in0.0 mm 0.00 in0.0 mm
03:00 AM 28.6°F-1.9°C 22.3°F-5.4°C 77% 3.0 mph W4.8 kmh W 10.0 mph16.1 kmh 29.80 in1009.1 mb 0.00 in0.0 mm 0.00 in0.0 mm 0.00 in0.0 mm
03:05 AM 28.7°F-1.8°C 22.4°F-5.3°C 77% 4.0 mph WNW6.4 kmh WNW 8.0 mph12.9 kmh 29.80 in1009.1 mb 0.00 in0.0 mm 0.00 in0.0 mm 0.00 in0.0 mm
03:10 AM 28.8°F-1.8°C 22.5°F-5.3°C 77% 2.0 mph WNW3.2 kmh WNW 8.0 mph12.9 kmh 29.80 in1009.1 mb 0.00 in0.0 mm 0.00 in0.0 mm 0.00 in0.0 mm
03:15 AM 28.8°F-1.8°C 22.5°F-5.3°C 77% 3.0 mph WNW4.8 kmh WNW 8.0 mph12.9 kmh 29.80 in1009.1 mb 0.00 in0.0 mm 0.00 in0.0 mm 0.00 in0.0 mm
03:20 AM 28.7°F-1.8°C 22.1°F-5.5°C 76% 3.0 mph NW4.8 kmh NW 9.0 mph14.5 kmh 29.80 in1009.1 mb 0.00 in0.0 mm 0.00 in0.0 mm 0.00 in0.0 mm
03:25 AM 28.7°F-1.8°C 22.1°F-5.5°C 76% 4.0 mph WNW6.4 kmh WNW 9.0 mph14.5 kmh 29.80 in1009.1 mb 0.00 in0.0 mm 0.00 in0.0 mm 0.00 in0.0 mm
03:30 AM 28.7°F-1.8°C 22.1°F-5.5°C 76% 3.0 mph WNW4.8 kmh WNW 9.0 mph14.5 kmh 29.80 in1009.1 mb 0.00 in0.0 mm 0.00 in0.0 mm 0.00 in0.0 mm
03:35 AM 28.7°F-1.8°C 22.1°F-5.5°C 76% 4.0 mph W6.4 kmh W 6.0 mph9.7 kmh 29.81 in1009.5 mb 0.00 in0.0 mm 0.00 in0.0 mm 0.00 in0.0 mm
03:40 AM 28.7°F-1.8°C 22.1°F-5.5°C 76% 3.0 mph WNW4.8 kmh WNW 7.0 mph11.3 kmh 29.81 in1009.5 mb 0.00 in0.0 mm 0.00 in0.0 mm 0.00 in0.0 mm
03:45 AM 28.8°F-1.8°C 22.2°F-5.4°C 76% 4.0 mph W6.4 kmh W 9.0 mph14.5 kmh 29.81 in1009.5 mb 0.00 in0.0 mm 0.00 in0.0 mm 0.00 in0.0 mm
03:50 AM 28.9°F-1.7°C 22.3°F-5.4°C 76% 6.0 mph W9.7 kmh W 8.0 mph12.9 kmh 29.81 in1009.5 mb 0.00 in0.0 mm 0.00 in0.0 mm 0.00 in0.0 mm
03:55 AM 29.1°F-1.6°C 22.5°F-5.3°C 76% 8.0 mph W12.9 kmh W 8.0 mph12.9 kmh 29.81 in1009.5 mb 0.00 in0.0 mm 0.00 in0.0 mm 0.00 in0.0 mm
04:00 AM 29.1°F-1.6°C 22.5°F-5.3°C 76% 2.0 mph WSW3.2 kmh WSW 8.0 mph12.9 kmh 29.81 in1009.5 mb 0.00 in0.0 mm 0.00 in0.0 mm 0.00 in0.0 mm
04:05 AM 29.1°F-1.6°C 22.5°F-5.3°C 76% 6.0 mph WSW9.7 kmh WSW 9.0 mph14.5 kmh 29.81 in1009.5 mb 0.00 in0.0 mm 0.00 in0.0 mm 0.00 in0.0 mm
04:10 AM 29.1°F-1.6°C 22.5°F-5.3°C 76% 3.0 mph WNW4.8 kmh WNW 9.0 mph14.5 kmh 29.81 in1009.5 mb 0.00 in0.0 mm 0.00 in0.0 mm 0.00 in0.0 mm
04:15 AM 29.1°F-1.6°C 22.5°F-5.3°C 76% 2.0 mph W3.2 kmh W 9.0 mph14.5 kmh 29.81 in1009.5 mb 0.00 in0.0 mm 0.00 in0.0 mm 0.00 in0.0 mm
04:20 AM 29.1°F-1.6°C 22.5°F-5.3°C 76% 6.0 mph WSW9.7 kmh WSW 10.0 mph16.1 kmh 29.82 in1009.8 mb 0.00 in0.0 mm 0.00 in0.0 mm 0.00 in0.0 mm
04:25 AM 29.2°F-1.6°C 22.6°F-5.2°C 76% 3.0 mph WSW4.8 kmh WSW 10.0 mph16.1 kmh 29.82 in1009.8 mb 0.00 in0.0 mm 0.00 in0.0 mm 0.00 in0.0 mm
04:30 AM 29.2°F-1.6°C 22.6°F-5.2°C 76% 5.0 mph WNW8.0 kmh WNW 10.0 mph16.1 kmh 29.82 in1009.8 mb 0.00 in0.0 mm 0.00 in0.0 mm 0.00 in0.0 mm
04:35 AM 29.3°F-1.5°C 22.4°F-5.3°C 75% 8.0 mph NW12.9 kmh NW 9.0 mph14.5 kmh 29.82 in1009.8 mb 0.00 in0.0 mm 0.00 in0.0 mm 0.00 in0.0 mm
04:40 AM 29.3°F-1.5°C 22.4°F-5.3°C 75% 3.0 mph WNW4.8 kmh WNW 9.0 mph14.5 kmh 29.82 in1009.8 mb 0.00 in0.0 mm 0.00 in0.0 mm 0.00 in0.0 mm
04:45 AM 29.3°F-1.5°C 22.4°F-5.3°C 75% 1.0 mph WSW1.6 kmh WSW 9.0 mph14.5 kmh 29.82 in1009.8 mb 0.00 in0.0 mm 0.00 in0.0 mm 0.00 in0.0 mm
04:50 AM 29.4°F-1.4°C 22.8°F-5.1°C 76% 2.0 mph WNW3.2 kmh WNW 2.0 mph3.2 kmh 29.82 in1009.8 mb 0.00 in0.0 mm 0.00 in0.0 mm 0.00 in0.0 mm
04:55 AM 29.4°F-1.4°C 22.5°F-5.3°C 75% 5.0 mph WSW8.0 kmh WSW 7.0 mph11.3 kmh 29.82 in1009.8 mb 0.00 in0.0 mm 0.00 in0.0 mm 0.00 in0.0 mm
05:00 AM 29.4°F-1.4°C 22.5°F-5.3°C 75% 3.0 mph WNW4.8 kmh WNW 9.0 mph14.5 kmh 29.82 in1009.8 mb 0.00 in0.0 mm 0.00 in0.0 mm 0.00 in0.0 mm
05:05 AM 29.5°F-1.4°C 22.6°F-5.2°C 75% 3.0 mph W4.8 kmh W 7.0 mph11.3 kmh 29.82 in1009.8 mb 0.00 in0.0 mm 0.00 in0.0 mm 0.00 in0.0 mm
05:10 AM 29.5°F-1.4°C 22.6°F-5.2°C 75% 3.0 mph WSW4.8 kmh WSW 9.0 mph14.5 kmh 29.82 in1009.8 mb 0.00 in0.0 mm 0.00 in0.0 mm 0.00 in0.0 mm
05:15 AM 29.5°F-1.4°C 22.6°F-5.2°C 75% 5.0 mph WSW8.0 kmh WSW 9.0 mph14.5 kmh 29.82 in1009.8 mb 0.00 in0.0 mm 0.00 in0.0 mm 0.00 in0.0 mm
05:20 AM 29.5°F-1.4°C 22.6°F-5.2°C 75% 4.0 mph WSW6.4 kmh WSW 7.0 mph11.3 kmh 29.82 in1009.8 mb 0.00 in0.0 mm 0.00 in0.0 mm 0.00 in0.0 mm
05:25 AM 29.5°F-1.4°C 22.6°F-5.2°C 75% 2.0 mph W3.2 kmh W 10.0 mph16.1 kmh 29.82 in1009.8 mb 0.00 in0.0 mm 0.00 in0.0 mm 0.00 in0.0 mm
05:30 AM 29.5°F-1.4°C 22.6°F-5.2°C 75% 2.0 mph W3.2 kmh W 10.0 mph16.1 kmh 29.82 in1009.8 mb 0.00 in0.0 mm 0.00 in0.0 mm 0.00 in0.0 mm
05:35 AM 29.5°F-1.4°C 22.6°F-5.2°C 75% 5.0 mph NW8.0 kmh NW 6.0 mph9.7 kmh 29.82 in1009.8 mb 0.00 in0.0 mm 0.00 in0.0 mm 0.00 in0.0 mm
05:40 AM 29.5°F-1.4°C 22.3°F-5.4°C 74% 6.0 mph SW9.7 kmh SW 9.0 mph14.5 kmh 29.82 in1009.8 mb 0.00 in0.0 mm 0.00 in0.0 mm 0.00 in0.0 mm
05:45 AM 29.5°F-1.4°C 21.9°F-5.6°C 73% 8.0 mph WNW12.9 kmh WNW 9.0 mph14.5 kmh 29.82 in1009.8 mb 0.00 in0.0 mm 0.00 in0.0 mm 0.00 in0.0 mm
05:50 AM 29.5°F-1.4°C 21.9°F-5.6°C 73% 8.0 mph WNW12.9 kmh WNW 13.0 mph20.9 kmh 29.82 in1009.8 mb 0.00 in0.0 mm 0.00 in0.0 mm 0.00 in0.0 mm
05:55 AM 29.6°F-1.3°C 21.7°F-5.7°C 72% 3.0 mph WNW4.8 kmh WNW 13.0 mph20.9 kmh 29.82 in1009.8 mb 0.00 in0.0 mm 0.00 in0.0 mm 0.00 in0.0 mm
06:00 AM 29.6°F-1.3°C 21.7°F-5.7°C 72% 6.0 mph WNW9.7 kmh WNW 13.0 mph20.9 kmh 29.82 in1009.8 mb 0.00 in0.0 mm 0.00 in0.0 mm 0.00 in0.0 mm
06:05 AM 29.7°F-1.3°C 21.8°F-5.7°C 72% 5.0 mph WNW8.0 kmh WNW 8.0 mph12.9 kmh 29.83 in1010.2 mb 0.00 in0.0 mm 0.00 in0.0 mm 0.00 in0.0 mm
06:10 AM 29.6°F-1.3°C 21.7°F-5.7°C 72% 5.0 mph WNW8.0 kmh WNW 11.0 mph17.7 kmh 29.83 in1010.2 mb 0.00 in0.0 mm 0.00 in0.0 mm 0.00 in0.0 mm
06:15 AM 29.6°F-1.3°C 21.7°F-5.7°C 72% 8.0 mph WNW12.9 kmh WNW 11.0 mph17.7 kmh 29.83 in1010.2 mb 0.00 in0.0 mm 0.00 in0.0 mm 0.00 in0.0 mm
06:20 AM 29.6°F-1.3°C 21.7°F-5.7°C 72% 7.0 mph W11.3 kmh W 12.0 mph19.3 kmh 29.83 in1010.2 mb 0.00 in0.0 mm 0.00 in0.0 mm 0.00 in0.0 mm
06:25 AM 29.6°F-1.3°C 21.7°F-5.7°C 72% 5.0 mph WNW8.0 kmh WNW 12.0 mph19.3 kmh 29.83 in1010.2 mb 0.00 in0.0 mm 0.00 in0.0 mm 0.00 in0.0 mm
06:30 AM 29.6°F-1.3°C 21.7°F-5.7°C 72% 5.0 mph NW8.0 kmh NW 12.0 mph19.3 kmh 29.83 in1010.2 mb 0.00 in0.0 mm 0.00 in0.0 mm 0.00 in0.0 mm
06:35 AM 29.6°F-1.3°C 21.7°F-5.7°C 72% 7.0 mph NW11.3 kmh NW 10.0 mph16.1 kmh 29.83 in1010.2 mb 0.00 in0.0 mm 0.00 in0.0 mm 0.00 in0.0 mm
06:40 AM 29.5°F-1.4°C 21.6°F-5.8°C 72% 9.0 mph WNW14.5 kmh WNW 13.0 mph20.9 kmh 29.84 in1010.5 mb 0.00 in0.0 mm 0.00 in0.0 mm 0.00 in0.0 mm
06:45 AM 29.5°F-1.4°C 21.6°F-5.8°C 72% 7.0 mph NW11.3 kmh NW 14.0 mph22.5 kmh 29.84 in1010.5 mb 0.00 in0.0 mm 0.00 in0.0 mm 0.00 in0.0 mm
06:50 AM 29.5°F-1.4°C 21.6°F-5.8°C 72% 10.0 mph W16.1 kmh W 14.0 mph22.5 kmh 29.84 in1010.5 mb 0.00 in0.0 mm 0.00 in0.0 mm 0.00 in0.0 mm
06:55 AM 29.5°F-1.4°C 21.6°F-5.8°C 72% 10.0 mph NW16.1 kmh NW 14.0 mph22.5 kmh 29.84 in1010.5 mb 0.00 in0.0 mm 0.00 in0.0 mm 0.00 in0.0 mm
07:00 AM 29.5°F-1.4°C 21.6°F-5.8°C 72% 6.0 mph NW9.7 kmh NW 14.0 mph22.5 kmh 29.84 in1010.5 mb 0.00 in0.0 mm 0.00 in0.0 mm 0.00 in0.0 mm
07:05 AM 29.5°F-1.4°C 21.6°F-5.8°C 72% 9.0 mph WSW14.5 kmh WSW 12.0 mph19.3 kmh 29.84 in1010.5 mb 0.00 in0.0 mm 0.00 in0.0 mm 0.00 in0.0 mm
07:10 AM 29.5°F-1.4°C 21.6°F-5.8°C 72% 9.0 mph NW14.5 kmh NW 14.0 mph22.5 kmh 29.85 in1010.8 mb 0.00 in0.0 mm 0.00 in0.0 mm 0.00 in0.0 mm
07:15 AM 29.5°F-1.4°C 21.6°F-5.8°C 72% 6.0 mph NW9.7 kmh NW 14.0 mph22.5 kmh 29.85 in1010.8 mb 0.00 in0.0 mm 0.00 in0.0 mm 0.00 in0.0 mm
07:20 AM 29.5°F-1.4°C 21.6°F-5.8°C 72% 10.0 mph NW16.1 kmh NW 13.0 mph20.9 kmh 29.85 in1010.8 mb 0.00 in0.0 mm 0.00 in0.0 mm 0.00 in0.0 mm
07:25 AM 29.5°F-1.4°C 21.6°F-5.8°C 72% 11.0 mph WNW17.7 kmh WNW 14.0 mph22.5 kmh 29.85 in1010.8 mb 0.00 in0.0 mm 0.00 in0.0 mm 0.00 in0.0 mm
07:30 AM 29.5°F-1.4°C 21.6°F-5.8°C 72% 7.0 mph NW11.3 kmh NW 14.0 mph22.5 kmh 29.86 in1011.2 mb 0.00 in0.0 mm 0.00 in0.0 mm 0.00 in0.0 mm
07:35 AM 29.4°F-1.4°C 21.8°F-5.7°C 73% 6.0 mph W9.7 kmh W 12.0 mph19.3 kmh 29.86 in1011.2 mb 0.00 in0.0 mm 0.00 in0.0 mm 0.00 in0.0 mm
07:40 AM 29.4°F-1.4°C 21.8°F-5.7°C 73% 8.0 mph WNW12.9 kmh WNW 12.0 mph19.3 kmh 29.86 in1011.2 mb 0.00 in0.0 mm 0.00 in0.0 mm 0.00 in0.0 mm
07:45 AM 29.4°F-1.4°C 21.8°F-5.7°C 73% 8.0 mph NW12.9 kmh NW 12.0 mph19.3 kmh 29.86 in1011.2 mb 0.00 in0.0 mm 0.00 in0.0 mm 0.00 in0.0 mm
07:50 AM 29.3°F-1.5°C 21.7°F-5.7°C 73% 11.0 mph NW17.7 kmh NW 11.0 mph17.7 kmh 29.86 in1011.2 mb 0.00 in0.0 mm 0.00 in0.0 mm 0.00 in0.0 mm
07:55 AM 29.3°F-1.5°C 21.7°F-5.7°C 73% 5.0 mph NW8.0 kmh NW 11.0 mph17.7 kmh 29.86 in1011.2 mb 0.00 in0.0 mm 0.00 in0.0 mm 0.00 in0.0 mm
08:00 AM 29.3°F-1.5°C 21.7°F-5.7°C 73% 8.0 mph NW12.9 kmh NW 13.0 mph20.9 kmh 29.86 in1011.2 mb 0.00 in0.0 mm 0.00 in0.0 mm 0.00 in0.0 mm
08:05 AM 29.3°F-1.5°C 21.7°F-5.7°C 73% 6.0 mph NW9.7 kmh NW 11.0 mph17.7 kmh 29.86 in1011.2 mb 0.00 in0.0 mm 0.00 in0.0 mm 0.00 in0.0 mm
08:10 AM 29.2°F-1.6°C 21.6°F-5.8°C 73% 9.0 mph NW14.5 kmh NW 11.0 mph17.7 kmh 29.86 in1011.2 mb 0.00 in0.0 mm 0.00 in0.0 mm 0.00 in0.0 mm
08:15 AM 29.2°F-1.6°C 21.6°F-5.8°C 73% 3.0 mph WNW4.8 kmh WNW 11.0 mph17.7 kmh 29.86 in1011.2 mb 0.00 in0.0 mm 0.00 in0.0 mm 0.00 in0.0 mm
08:20 AM 29.2°F-1.6°C 21.6°F-5.8°C 73% 9.0 mph NW14.5 kmh NW 11.0 mph17.7 kmh 29.86 in1011.2 mb 0.00 in0.0 mm 0.00 in0.0 mm 0.00 in0.0 mm
08:25 AM 29.2°F-1.6°C 21.6°F-5.8°C 73% 10.0 mph W16.1 kmh W 12.0 mph19.3 kmh 29.86 in1011.2 mb 0.00 in0.0 mm 0.00 in0.0 mm 0.00 in0.0 mm
08:30 AM 29.2°F-1.6°C 21.6°F-5.8°C 73% 5.0 mph WNW8.0 kmh WNW 13.0 mph20.9 kmh 29.87 in1011.5 mb 0.00 in0.0 mm 0.00 in0.0 mm 0.00 in0.0 mm
08:35 AM 29.2°F-1.6°C 22.0°F-5.6°C 74% 6.0 mph WNW9.7 kmh WNW 14.0 mph22.5 kmh 29.87 in1011.5 mb 0.00 in0.0 mm 0.00 in0.0 mm 0.00 in0.0 mm
08:40 AM 29.2°F-1.6°C 21.6°F-5.8°C 73% 8.0 mph WNW12.9 kmh WNW 14.0 mph22.5 kmh 29.87 in1011.5 mb 0.00 in0.0 mm 0.00 in0.0 mm 0.00 in0.0 mm
08:45 AM 29.2°F-1.6°C 21.6°F-5.8°C 73% 8.0 mph NW12.9 kmh NW 14.0 mph22.5 kmh 29.87 in1011.5 mb 0.00 in0.0 mm 0.00 in0.0 mm 0.00 in0.0 mm
08:50 AM 29.2°F-1.6°C 21.6°F-5.8°C 73% 12.0 mph NW19.3 kmh NW 14.0 mph22.5 kmh 29.88 in1011.9 mb 0.00 in0.0 mm 0.00 in0.0 mm 0.00 in0.0 mm
08:55 AM 29.2°F-1.6°C 21.3°F-5.9°C 72% 5.0 mph NW8.0 kmh NW 14.0 mph22.5 kmh 29.88 in1011.9 mb 0.00 in0.0 mm 0.00 in0.0 mm 0.00 in0.0 mm
09:00 AM 29.2°F-1.6°C 21.3°F-5.9°C 72% 9.0 mph WNW14.5 kmh WNW 14.0 mph22.5 kmh 29.88 in1011.9 mb 0.00 in0.0 mm 0.00 in0.0 mm 0.00 in0.0 mm
09:05 AM 29.2°F-1.6°C 21.3°F-5.9°C 72% 6.0 mph W9.7 kmh W 14.0 mph22.5 kmh 29.88 in1011.9 mb 0.00 in0.0 mm 0.00 in0.0 mm 0.00 in0.0 mm
09:10 AM 29.2°F-1.6°C 21.3°F-5.9°C 72% 8.0 mph W12.9 kmh W 14.0 mph22.5 kmh 29.88 in1011.9 mb 0.00 in0.0 mm 0.00 in0.0 mm 0.00 in0.0 mm
09:15 AM 29.2°F-1.6°C 21.3°F-5.9°C 72% 7.0 mph WNW11.3 kmh WNW 15.0 mph24.1 kmh 29.89 in1012.2 mb 0.00 in0.0 mm 0.00 in0.0 mm 0.00 in0.0 mm
09:20 AM 29.2°F-1.6°C 21.6°F-5.8°C 73% 7.0 mph NW11.3 kmh NW 12.0 mph19.3 kmh 29.89 in1012.2 mb 0.00 in0.0 mm 0.00 in0.0 mm 0.00 in0.0 mm
09:25 AM 29.3°F-1.5°C 21.7°F-5.7°C 73% 10.0 mph NW16.1 kmh NW 13.0 mph20.9 kmh 29.89 in1012.2 mb 0.00 in0.0 mm 0.00 in0.0 mm 0.00 in0.0 mm
09:30 AM 29.3°F-1.5°C 21.7°F-5.7°C 73% 7.0 mph W11.3 kmh W 15.0 mph24.1 kmh 29.89 in1012.2 mb 0.00 in0.0 mm 0.00 in0.0 mm 0.00 in0.0 mm
09:35 AM 29.3°F-1.5°C 21.7°F-5.7°C 73% 3.0 mph SW4.8 kmh SW 14.0 mph22.5 kmh 29.90 in1012.5 mb 0.00 in0.0 mm 0.00 in0.0 mm 0.00 in0.0 mm
09:40 AM 29.3°F-1.5°C 21.7°F-5.7°C 73% 13.0 mph W20.9 kmh W 16.0 mph25.7 kmh 29.90 in1012.5 mb 0.00 in0.0 mm 0.00 in0.0 mm 0.00 in0.0 mm
09:45 AM 29.3°F-1.5°C 21.7°F-5.7°C 73% 8.0 mph NW12.9 kmh NW 16.0 mph25.7 kmh 29.90 in1012.5 mb 0.00 in0.0 mm 0.00 in0.0 mm 0.00 in0.0 mm
09:50 AM 29.3°F-1.5°C 21.4°F-5.9°C 72% 8.0 mph NW12.9 kmh NW 17.0 mph27.4 kmh 29.90 in1012.5 mb 0.00 in0.0 mm 0.00 in0.0 mm 0.00 in0.0 mm
09:55 AM 29.3°F-1.5°C 21.4°F-5.9°C 72% 5.0 mph WSW8.0 kmh WSW 17.0 mph27.4 kmh 29.91 in1012.9 mb 0.00 in0.0 mm 0.00 in0.0 mm 0.00 in0.0 mm
10:00 AM 29.3°F-1.5°C 21.4°F-5.9°C 72% 8.0 mph NW12.9 kmh NW 17.0 mph27.4 kmh 29.91 in1012.9 mb 0.00 in0.0 mm 0.00 in0.0 mm 0.00 in0.0 mm
10:05 AM 29.3°F-1.5°C 21.1°F-6.1°C 71% 9.0 mph NW14.5 kmh NW 15.0 mph24.1 kmh 29.91 in1012.9 mb 0.00 in0.0 mm 0.00 in0.0 mm 0.00 in0.0 mm
10:10 AM 29.2°F-1.6°C 21.0°F-6.1°C 71% 14.0 mph NW22.5 kmh NW 15.0 mph24.1 kmh 29.92 in1013.2 mb 0.00 in0.0 mm 0.00 in0.0 mm 0.00 in0.0 mm
10:15 AM 29.2°F-1.6°C 21.0°F-6.1°C 71% 8.0 mph NW12.9 kmh NW 15.0 mph24.1 kmh 29.92 in1013.2 mb 0.00 in0.0 mm 0.00 in0.0 mm 0.00 in0.0 mm
10:20 AM 29.2°F-1.6°C 21.0°F-6.1°C 71% 8.0 mph WNW12.9 kmh WNW 16.0 mph25.7 kmh 29.92 in1013.2 mb 0.00 in0.0 mm 0.00 in0.0 mm 0.00 in0.0 mm
10:25 AM 29.2°F-1.6°C 21.0°F-6.1°C 71% 8.0 mph NW12.9 kmh NW 16.0 mph25.7 kmh 29.92 in1013.2 mb 0.00 in0.0 mm 0.00 in0.0 mm 0.00 in0.0 mm
10:30 AM 29.1°F-1.6°C 21.2°F-6.0°C 72% 6.0 mph NW9.7 kmh NW 16.0 mph25.7 kmh 29.93 in1013.5 mb 0.00 in0.0 mm 0.00 in0.0 mm 0.00 in0.0 mm
10:35 AM 29.0°F-1.7°C 21.4°F-5.9°C 73% 11.0 mph NW17.7 kmh NW 18.0 mph29.0 kmh 29.93 in1013.5 mb 0.00 in0.0 mm 0.00 in0.0 mm 0.00 in0.0 mm
10:40 AM 28.9°F-1.7°C 21.7°F-5.7°C 74% 9.0 mph NW14.5 kmh NW 18.0 mph29.0 kmh 29.93 in1013.5 mb 0.00 in0.0 mm 0.00 in0.0 mm 0.00 in0.0 mm
10:45 AM 28.9°F-1.7°C 21.4°F-5.9°C 73% 7.0 mph NW11.3 kmh NW 18.0 mph29.0 kmh 29.93 in1013.5 mb 0.00 in0.0 mm 0.00 in0.0 mm 0.00 in0.0 mm
10:50 AM 28.9°F-1.7°C 21.4°F-5.9°C 73% 12.0 mph NW19.3 kmh NW 17.0 mph27.4 kmh 29.93 in1013.5 mb 0.00 in0.0 mm 0.00 in0.0 mm 0.00 in0.0 mm
10:55 AM 28.7°F-1.8°C 21.5°F-5.8°C 74% 9.0 mph WNW14.5 kmh WNW 17.0 mph27.4 kmh 29.94 in1013.9 mb 0.00 in0.0 mm 0.00 in0.0 mm 0.00 in0.0 mm
11:00 AM 28.6°F-1.9°C 21.7°F-5.7°C 75% 9.0 mph NW14.5 kmh NW 17.0 mph27.4 kmh 29.94 in1013.9 mb 0.00 in0.0 mm 0.00 in0.0 mm 0.00 in0.0 mm
11:05 AM 28.5°F-1.9°C 21.3°F-5.9°C 74% 8.0 mph NW12.9 kmh NW 15.0 mph24.1 kmh 29.94 in1013.9 mb 0.00 in0.0 mm 0.00 in0.0 mm 0.00 in0.0 mm
11:10 AM 28.7°F-1.8°C 21.5°F-5.8°C 74% 8.0 mph WNW12.9 kmh WNW 15.0 mph24.1 kmh 29.94 in1013.9 mb 0.00 in0.0 mm 0.00 in0.0 mm 0.00 in0.0 mm
11:15 AM 28.7°F-1.8°C 21.5°F-5.8°C 74% 9.0 mph NW14.5 kmh NW 15.0 mph24.1 kmh 29.94 in1013.9 mb 0.00 in0.0 mm 0.00 in0.0 mm 0.00 in0.0 mm
11:20 AM 28.8°F-1.8°C 21.3°F-5.9°C 73% 9.0 mph NW14.5 kmh NW 14.0 mph22.5 kmh 29.95 in1014.2 mb 0.00 in0.0 mm 0.00 in0.0 mm 0.00 in0.0 mm
11:25 AM 28.9°F-1.7°C 21.0°F-6.1°C 72% 9.0 mph NW14.5 kmh NW 18.0 mph29.0 kmh 29.95 in1014.2 mb 0.00 in0.0 mm 0.00 in0.0 mm 0.00 in0.0 mm
11:30 AM 29.1°F-1.6°C 20.9°F-6.2°C 71% 9.0 mph WSW14.5 kmh WSW 18.0 mph29.0 kmh 29.95 in1014.2 mb 0.00 in0.0 mm 0.00 in0.0 mm 0.00 in0.0 mm
11:35 AM 29.2°F-1.6°C 20.3°F-6.5°C 69% 10.0 mph NW16.1 kmh NW 16.0 mph25.7 kmh 29.95 in1014.2 mb 0.00 in0.0 mm 0.00 in0.0 mm 0.00 in0.0 mm
11:40 AM 29.4°F-1.4°C 20.2°F-6.6°C 68% 11.0 mph NW17.7 kmh NW 16.0 mph25.7 kmh 29.95 in1014.2 mb 0.00 in0.0 mm 0.00 in0.0 mm 0.00 in0.0 mm
11:45 AM 29.6°F-1.3°C 20.0°F-6.7°C 67% 9.0 mph WNW14.5 kmh WNW 16.0 mph25.7 kmh 29.95 in1014.2 mb 0.00 in0.0 mm 0.00 in0.0 mm 0.00 in0.0 mm
11:50 AM 29.7°F-1.3°C 19.8°F-6.8°C 66% 13.0 mph NW20.9 kmh NW 14.0 mph22.5 kmh 29.96 in1014.6 mb 0.00 in0.0 mm 0.00 in0.0 mm 0.00 in0.0 mm
11:55 AM 29.7°F-1.3°C 19.4°F-7.0°C 65% 11.0 mph NW17.7 kmh NW 16.0 mph25.7 kmh 29.96 in1014.6 mb 0.00 in0.0 mm 0.00 in0.0 mm 0.00 in0.0 mm
12:00 PM 29.8°F-1.2°C 19.5°F-6.9°C 65% 12.0 mph NNW19.3 kmh NNW 16.0 mph25.7 kmh 29.96 in1014.6 mb 0.00 in0.0 mm 0.00 in0.0 mm 0.00 in0.0 mm
12:05 PM 29.9°F-1.2°C 18.5°F-7.5°C 62% 10.0 mph WNW16.1 kmh WNW 18.0 mph29.0 kmh 29.97 in1014.9 mb 0.00 in0.0 mm 0.00 in0.0 mm 0.00 in0.0 mm
12:10 PM 29.9°F-1.2°C 17.7°F-7.9°C 60% 12.0 mph NW19.3 kmh NW 20.0 mph32.2 kmh 29.97 in1014.9 mb 0.00 in0.0 mm 0.00 in0.0 mm 0.00 in0.0 mm
12:15 PM 30.0°F-1.1°C 17.8°F-7.9°C 60% 7.0 mph NW11.3 kmh NW 20.0 mph32.2 kmh 29.97 in1014.9 mb 0.00 in0.0 mm 0.00 in0.0 mm 0.00 in0.0 mm
12:20 PM 30.2°F-1.0°C 18.8°F-7.3°C 62% 14.0 mph W22.5 kmh W 14.0 mph22.5 kmh 29.97 in1014.9 mb 0.00 in0.0 mm 0.00 in0.0 mm 0.00 in0.0 mm
12:25 PM 30.2°F-1.0°C 18.0°F-7.8°C 60% 11.0 mph NW17.7 kmh NW 19.0 mph30.6 kmh 29.98 in1015.2 mb 0.00 in0.0 mm 0.00 in0.0 mm 0.00 in0.0 mm
12:30 PM 30.1°F-1.1°C 17.5°F-8.1°C 59% 5.0 mph W8.0 kmh W 19.0 mph30.6 kmh 29.98 in1015.2 mb 0.00 in0.0 mm 0.00 in0.0 mm 0.00 in0.0 mm
12:35 PM 30.1°F-1.1°C 17.5°F-8.1°C 59% 16.0 mph W25.7 kmh W 18.0 mph29.0 kmh 29.98 in1015.2 mb 0.00 in0.0 mm 0.00 in0.0 mm 0.00 in0.0 mm
12:40 PM 30.1°F-1.1°C 16.7°F-8.5°C 57% 12.0 mph NW19.3 kmh NW 20.0 mph32.2 kmh 29.98 in1015.2 mb 0.00 in0.0 mm 0.00 in0.0 mm 0.00 in0.0 mm
12:45 PM 30.3°F-0.9°C 16.5°F-8.6°C 56% 11.0 mph NW17.7 kmh NW 21.0 mph33.8 kmh 29.98 in1015.2 mb 0.00 in0.0 mm 0.00 in0.0 mm 0.00 in0.0 mm
12:50 PM 30.7°F-0.7°C 17.3°F-8.2°C 57% 12.0 mph NW19.3 kmh NW 17.0 mph27.4 kmh 29.98 in1015.2 mb 0.00 in0.0 mm 0.00 in0.0 mm 0.00 in0.0 mm
12:55 PM 31.0°F-0.6°C 17.6°F-8.0°C 57% 12.0 mph WNW19.3 kmh WNW 17.0 mph27.4 kmh 29.98 in1015.2 mb 0.00 in0.0 mm 0.00 in0.0 mm 0.00 in0.0 mm
01:00 PM 31.1°F-0.5°C 17.3°F-8.2°C 56% 12.0 mph WNW19.3 kmh WNW 17.0 mph27.4 kmh 29.98 in1015.2 mb 0.00 in0.0 mm 0.00 in0.0 mm 0.00 in0.0 mm
01:05 PM 31.1°F-0.5°C 16.8°F-8.4°C 55% 13.0 mph WNW20.9 kmh WNW 21.0 mph33.8 kmh 29.98 in1015.2 mb 0.00 in0.0 mm 0.00 in0.0 mm 0.00 in0.0 mm
01:10 PM 31.3°F-0.4°C 17.0°F-8.3°C 55% 16.0 mph NW25.7 kmh NW 21.0 mph33.8 kmh 29.98 in1015.2 mb 0.00 in0.0 mm 0.00 in0.0 mm 0.00 in0.0 mm
01:15 PM 31.2°F-0.4°C 16.5°F-8.6°C 54% 13.0 mph WNW20.9 kmh WNW 21.0 mph33.8 kmh 29.98 in1015.2 mb 0.00 in0.0 mm 0.00 in0.0 mm 0.00 in0.0 mm
01:20 PM 31.4°F-0.3°C 17.1°F-8.3°C 55% 9.0 mph NW14.5 kmh NW 17.0 mph27.4 kmh 29.98 in1015.2 mb 0.00 in0.0 mm 0.00 in0.0 mm 0.00 in0.0 mm
01:25 PM 31.3°F-0.4°C 16.6°F-8.6°C 54% 11.0 mph W17.7 kmh W 18.0 mph29.0 kmh 29.98 in1015.2 mb 0.00 in0.0 mm 0.00 in0.0 mm 0.00 in0.0 mm
01:30 PM 31.5°F-0.3°C 16.8°F-8.4°C 54% 15.0 mph NW24.1 kmh NW 18.0 mph29.0 kmh 29.98 in1015.2 mb 0.00 in0.0 mm 0.00 in0.0 mm 0.00 in0.0 mm
01:35 PM 31.6°F-0.2°C 16.9°F-8.4°C 54% 12.0 mph NW19.3 kmh NW 19.0 mph30.6 kmh 29.98 in1015.2 mb 0.00 in0.0 mm 0.00 in0.0 mm 0.00 in0.0 mm
01:40 PM 31.8°F-0.1°C 16.6°F-8.6°C 53% 8.0 mph NNW12.9 kmh NNW 19.0 mph30.6 kmh 29.98 in1015.2 mb 0.00 in0.0 mm 0.00 in0.0 mm 0.00 in0.0 mm
01:45 PM 32.0°F0.0°C 16.8°F-8.4°C 53% 15.0 mph NW24.1 kmh NW 19.0 mph30.6 kmh 29.98 in1015.2 mb 0.00 in0.0 mm 0.00 in0.0 mm 0.00 in0.0 mm
01:50 PM 32.0°F0.0°C 17.3°F-8.2°C 54% 6.0 mph NW9.7 kmh NW 20.0 mph32.2 kmh 29.99 in1015.6 mb 0.00 in0.0 mm 0.00 in0.0 mm 0.00 in0.0 mm
01:55 PM 32.3°F0.2°C 18.0°F-7.8°C 55% 6.0 mph WNW9.7 kmh WNW 20.0 mph32.2 kmh 29.99 in1015.6 mb 0.00 in0.0 mm 0.00 in0.0 mm 0.00 in0.0 mm
02:05 PM 32.3°F0.2°C 17.5°F-8.1°C 54% 10.0 mph NW16.1 kmh NW 18.0 mph29.0 kmh 29.99 in1015.6 mb 0.00 in0.0 mm 0.00 in0.0 mm 0.00 in0.0 mm
02:10 PM 32.7°F0.4°C 17.9°F-7.8°C 54% 6.0 mph W9.7 kmh W 18.0 mph29.0 kmh 29.99 in1015.6 mb 0.00 in0.0 mm 0.00 in0.0 mm 0.00 in0.0 mm
02:15 PM 32.8°F0.4°C 17.6°F-8.0°C 53% 9.0 mph WNW14.5 kmh WNW 18.0 mph29.0 kmh 29.99 in1015.6 mb 0.00 in0.0 mm 0.00 in0.0 mm 0.00 in0.0 mm
02:20 PM 32.8°F0.4°C 18.0°F-7.8°C 54% 8.0 mph NW12.9 kmh NW 18.0 mph29.0 kmh 29.99 in1015.6 mb 0.00 in0.0 mm 0.00 in0.0 mm 0.00 in0.0 mm
02:25 PM 32.6°F0.3°C 17.8°F-7.9°C 54% 14.0 mph NW22.5 kmh NW 19.0 mph30.6 kmh 29.99 in1015.6 mb 0.00 in0.0 mm 0.00 in0.0 mm 0.00 in0.0 mm
02:30 PM 32.8°F0.4°C 18.0°F-7.8°C 54% 10.0 mph WSW16.1 kmh WSW 19.0 mph30.6 kmh 29.99 in1015.6 mb 0.00 in0.0 mm 0.00 in0.0 mm 0.00 in0.0 mm
02:35 PM 33.1°F0.6°C 17.4°F-8.1°C 52% 18.0 mph NW29.0 kmh NW 18.0 mph29.0 kmh 29.99 in1015.6 mb 0.00 in0.0 mm 0.00 in0.0 mm 0.00 in0.0 mm
02:40 PM 33.6°F0.9°C 17.9°F-7.8°C 52% 13.0 mph NW20.9 kmh NW 20.0 mph32.2 kmh 29.99 in1015.6 mb 0.00 in0.0 mm 0.00 in0.0 mm 0.00 in0.0 mm
02:45 PM 33.8°F1.0°C 18.9°F-7.3°C 54% 9.0 mph WNW14.5 kmh WNW 20.0 mph32.2 kmh 29.99 in1015.6 mb 0.00 in0.0 mm 0.00 in0.0 mm 0.00 in0.0 mm
02:50 PM 33.5°F0.8°C 18.7°F-7.4°C 54% 13.0 mph WNW20.9 kmh WNW 16.0 mph25.7 kmh 29.99 in1015.6 mb 0.00 in0.0 mm 0.00 in0.0 mm 0.00 in0.0 mm
02:55 PM 33.7°F0.9°C 18.4°F-7.6°C 53% 16.0 mph NW25.7 kmh NW 18.0 mph29.0 kmh 30.00 in1015.9 mb 0.00 in0.0 mm 0.00 in0.0 mm 0.00 in0.0 mm
03:00 PM 34.2°F1.2°C 19.3°F-7.1°C 54% 13.0 mph NW20.9 kmh NW 20.0 mph32.2 kmh 29.99 in1015.6 mb 0.00 in0.0 mm 0.00 in0.0 mm 0.00 in0.0 mm
03:05 PM 34.2°F1.2°C 18.9°F-7.3°C 53% 8.0 mph NW12.9 kmh NW 19.0 mph30.6 kmh 29.99 in1015.6 mb 0.00 in0.0 mm 0.00 in0.0 mm 0.00 in0.0 mm
03:10 PM 34.3°F1.3°C 19.0°F-7.2°C 53% 12.0 mph NW19.3 kmh NW 19.0 mph30.6 kmh 30.00 in1015.9 mb 0.00 in0.0 mm 0.00 in0.0 mm 0.00 in0.0 mm
03:15 PM 34.1°F1.2°C 18.3°F-7.6°C 52% 15.0 mph NW24.1 kmh NW 19.0 mph30.6 kmh 30.00 in1015.9 mb 0.00 in0.0 mm 0.00 in0.0 mm 0.00 in0.0 mm
03:20 PM 34.0°F1.1°C 18.7°F-7.4°C 53% 9.0 mph NW14.5 kmh NW 19.0 mph30.6 kmh 30.00 in1015.9 mb 0.00 in0.0 mm 0.00 in0.0 mm 0.00 in0.0 mm
03:25 PM 34.4°F1.3°C 19.1°F-7.2°C 53% 7.0 mph NW11.3 kmh NW 19.0 mph30.6 kmh 30.00 in1015.9 mb 0.00 in0.0 mm 0.00 in0.0 mm 0.00 in0.0 mm
03:30 PM 34.5°F1.4°C 18.7°F-7.4°C 52% 8.0 mph WNW12.9 kmh WNW 19.0 mph30.6 kmh 30.00 in1015.9 mb 0.00 in0.0 mm 0.00 in0.0 mm 0.00 in0.0 mm
03:35 PM 34.4°F1.3°C 19.1°F-7.2°C 53% 11.0 mph WSW17.7 kmh WSW 16.0 mph25.7 kmh 30.00 in1015.9 mb 0.00 in0.0 mm 0.00 in0.0 mm 0.00 in0.0 mm
03:40 PM 34.6°F1.4°C 20.1°F-6.6°C 55% 10.0 mph W16.1 kmh W 18.0 mph29.0 kmh 30.00 in1015.9 mb 0.00 in0.0 mm 0.00 in0.0 mm 0.00 in0.0 mm
03:45 PM 35.1°F1.7°C 19.7°F-6.8°C 53% 15.0 mph NW24.1 kmh NW 18.0 mph29.0 kmh 30.00 in1015.9 mb 0.00 in0.0 mm 0.00 in0.0 mm 0.00 in0.0 mm
03:50 PM 34.8°F1.6°C 19.4°F-7.0°C 53% 9.0 mph NW14.5 kmh NW 16.0 mph25.7 kmh 30.01 in1016.3 mb 0.00 in0.0 mm 0.00 in0.0 mm 0.00 in0.0 mm
03:55 PM 34.2°F1.2°C 18.4°F-7.6°C 52% 11.0 mph WNW17.7 kmh WNW 18.0 mph29.0 kmh 30.01 in1016.3 mb 0.00 in0.0 mm 0.00 in0.0 mm 0.00 in0.0 mm
04:00 PM 34.3°F1.3°C 19.8°F-6.8°C 55% 10.0 mph NW16.1 kmh NW 21.0 mph33.8 kmh 30.01 in1016.3 mb 0.00 in0.0 mm 0.00 in0.0 mm 0.00 in0.0 mm
04:05 PM 34.4°F1.3°C 19.5°F-6.9°C 54% 6.0 mph W9.7 kmh W 15.0 mph24.1 kmh 30.01 in1016.3 mb 0.00 in0.0 mm 0.00 in0.0 mm 0.00 in0.0 mm
04:10 PM 34.7°F1.5°C 19.8°F-6.8°C 54% 13.0 mph NW20.9 kmh NW 15.0 mph24.1 kmh 30.01 in1016.3 mb 0.00 in0.0 mm 0.00 in0.0 mm 0.00 in0.0 mm
04:15 PM 34.6°F1.4°C 19.7°F-6.8°C 54% 6.0 mph W9.7 kmh W 15.0 mph24.1 kmh 30.01 in1016.3 mb 0.00 in0.0 mm 0.00 in0.0 mm 0.00 in0.0 mm
04:20 PM 34.7°F1.5°C 18.9°F-7.3°C 52% 9.0 mph W14.5 kmh W 20.0 mph32.2 kmh 30.01 in1016.3 mb 0.00 in0.0 mm 0.00 in0.0 mm 0.00 in0.0 mm
04:25 PM 34.6°F1.4°C 18.8°F-7.3°C 52% 14.0 mph W22.5 kmh W 20.0 mph32.2 kmh 30.01 in1016.3 mb 0.00 in0.0 mm 0.00 in0.0 mm 0.00 in0.0 mm
04:30 PM 34.3°F1.3°C 19.0°F-7.2°C 53% 10.0 mph NW16.1 kmh NW 20.0 mph32.2 kmh 30.02 in1016.6 mb 0.00 in0.0 mm 0.00 in0.0 mm 0.00 in0.0 mm
04:35 PM 34.3°F1.3°C 19.0°F-7.2°C 53% 15.0 mph NW24.1 kmh NW 19.0 mph30.6 kmh 30.02 in1016.6 mb 0.00 in0.0 mm 0.00 in0.0 mm 0.00 in0.0 mm
04:40 PM 34.2°F1.2°C 19.3°F-7.1°C 54% 10.0 mph NW16.1 kmh NW 19.0 mph30.6 kmh 30.02 in1016.6 mb 0.00 in0.0 mm 0.00 in0.0 mm 0.00 in0.0 mm
04:45 PM 34.0°F1.1°C 19.1°F-7.2°C 54% 14.0 mph NW22.5 kmh NW 19.0 mph30.6 kmh 30.02 in1016.6 mb 0.00 in0.0 mm 0.00 in0.0 mm 0.00 in0.0 mm
04:50 PM 33.5°F0.8°C 18.2°F-7.7°C 53% 14.0 mph WNW22.5 kmh WNW 17.0 mph27.4 kmh 30.02 in1016.6 mb 0.00 in0.0 mm 0.00 in0.0 mm 0.00 in0.0 mm
04:55 PM 33.5°F0.8°C 18.7°F-7.4°C 54% 9.0 mph NNW14.5 kmh NNW 17.0 mph27.4 kmh 30.03 in1016.9 mb 0.00 in0.0 mm 0.00 in0.0 mm 0.00 in0.0 mm
05:00 PM 33.3°F0.7°C 18.5°F-7.5°C 54% 12.0 mph NNW19.3 kmh NNW 17.0 mph27.4 kmh 30.03 in1016.9 mb 0.00 in0.0 mm 0.00 in0.0 mm 0.00 in0.0 mm
05:05 PM 33.1°F0.6°C 17.8°F-7.9°C 53% 6.0 mph NW9.7 kmh NW 12.0 mph19.3 kmh 30.03 in1016.9 mb 0.00 in0.0 mm 0.00 in0.0 mm 0.00 in0.0 mm
05:10 PM 33.4°F0.8°C 18.1°F-7.7°C 53% 9.0 mph NW14.5 kmh NW 15.0 mph24.1 kmh 30.04 in1017.3 mb 0.00 in0.0 mm 0.00 in0.0 mm 0.00 in0.0 mm
05:15 PM 33.3°F0.7°C 17.6°F-8.0°C 52% 11.0 mph N17.7 kmh N 17.0 mph27.4 kmh 30.04 in1017.3 mb 0.00 in0.0 mm 0.00 in0.0 mm 0.00 in0.0 mm
05:20 PM 32.9°F0.5°C 17.2°F-8.2°C 52% 13.0 mph NW20.9 kmh NW 16.0 mph25.7 kmh 30.05 in1017.6 mb 0.00 in0.0 mm 0.00 in0.0 mm 0.00 in0.0 mm
05:25 PM 32.7°F0.4°C 17.5°F-8.1°C 53% 4.0 mph WNW6.4 kmh WNW 17.0 mph27.4 kmh 30.05 in1017.6 mb 0.00 in0.0 mm 0.00 in0.0 mm 0.00 in0.0 mm
05:30 PM 32.6°F0.3°C 17.4°F-8.1°C 53% 8.0 mph NW12.9 kmh NW 17.0 mph27.4 kmh 30.05 in1017.6 mb 0.00 in0.0 mm 0.00 in0.0 mm 0.00 in0.0 mm
05:35 PM 32.5°F0.3°C 17.3°F-8.2°C 53% 4.0 mph WNW6.4 kmh WNW 10.0 mph16.1 kmh 30.05 in1017.6 mb 0.00 in0.0 mm 0.00 in0.0 mm 0.00 in0.0 mm
05:40 PM 32.8°F0.4°C 17.1°F-8.3°C 52% 8.0 mph N12.9 kmh N 13.0 mph20.9 kmh 30.05 in1017.6 mb 0.00 in0.0 mm 0.00 in0.0 mm 0.00 in0.0 mm
05:45 PM 33.1°F0.6°C 17.4°F-8.1°C 52% 12.0 mph NW19.3 kmh NW 17.0 mph27.4 kmh 30.05 in1017.6 mb 0.00 in0.0 mm 0.00 in0.0 mm 0.00 in0.0 mm
05:50 PM 33.2°F0.7°C 17.5°F-8.1°C 52% 8.0 mph NW12.9 kmh NW 13.0 mph20.9 kmh 30.06 in1017.9 mb 0.00 in0.0 mm 0.00 in0.0 mm 0.00 in0.0 mm
05:55 PM 33.0°F0.6°C 17.8°F-7.9°C 53% 14.0 mph NW22.5 kmh NW 18.0 mph29.0 kmh 30.06 in1017.9 mb 0.00 in0.0 mm 0.00 in0.0 mm 0.00 in0.0 mm
06:00 PM 32.7°F0.4°C 17.0°F-8.3°C 52% 8.0 mph NW12.9 kmh NW 19.0 mph30.6 kmh 30.06 in1017.9 mb 0.00 in0.0 mm 0.00 in0.0 mm 0.00 in0.0 mm
06:05 PM 32.3°F0.2°C 17.1°F-8.3°C 53% 8.0 mph WNW12.9 kmh WNW 14.0 mph22.5 kmh 30.06 in1017.9 mb 0.00 in0.0 mm 0.00 in0.0 mm 0.00 in0.0 mm
06:10 PM 32.2°F0.1°C 17.0°F-8.3°C 53% 11.0 mph WNW17.7 kmh WNW 16.0 mph25.7 kmh 30.06 in1017.9 mb 0.00 in0.0 mm 0.00 in0.0 mm 0.00 in0.0 mm
06:15 PM 32.0°F0.0°C 16.4°F-8.7°C 52% 14.0 mph NW22.5 kmh NW 20.0 mph32.2 kmh 30.06 in1017.9 mb 0.00 in0.0 mm 0.00 in0.0 mm 0.00 in0.0 mm
06:20 PM 31.9°F-0.1°C 17.2°F-8.2°C 54% 12.0 mph NW19.3 kmh NW 14.0 mph22.5 kmh 30.07 in1018.3 mb 0.00 in0.0 mm 0.00 in0.0 mm 0.00 in0.0 mm
06:25 PM 31.6°F-0.2°C 17.7°F-7.9°C 56% 12.0 mph WNW19.3 kmh WNW 18.0 mph29.0 kmh 30.07 in1018.3 mb 0.00 in0.0 mm 0.00 in0.0 mm 0.00 in0.0 mm
06:30 PM 31.1°F-0.5°C 17.3°F-8.2°C 56% 11.0 mph NW17.7 kmh NW 21.0 mph33.8 kmh 30.07 in1018.3 mb 0.00 in0.0 mm 0.00 in0.0 mm 0.00 in0.0 mm
06:35 PM 30.8°F-0.7°C 17.0°F-8.3°C 56% 7.0 mph NW11.3 kmh NW 16.0 mph25.7 kmh 30.07 in1018.3 mb 0.00 in0.0 mm 0.00 in0.0 mm 0.00 in0.0 mm
06:40 PM 30.6°F-0.8°C 16.8°F-8.4°C 56% 15.0 mph NNW24.1 kmh NNW 19.0 mph30.6 kmh 30.07 in1018.3 mb 0.00 in0.0 mm 0.00 in0.0 mm 0.00 in0.0 mm
06:45 PM 30.2°F-1.0°C 16.0°F-8.9°C 55% 8.0 mph NW12.9 kmh NW 20.0 mph32.2 kmh 30.07 in1018.3 mb 0.00 in0.0 mm 0.00 in0.0 mm 0.00 in0.0 mm
06:50 PM 30.0°F-1.1°C 15.8°F-9.0°C 55% 12.0 mph NW19.3 kmh NW 18.0 mph29.0 kmh 30.08 in1018.6 mb 0.00 in0.0 mm 0.00 in0.0 mm 0.00 in0.0 mm
06:55 PM 29.8°F-1.2°C 16.0°F-8.9°C 56% 9.0 mph NW14.5 kmh NW 18.0 mph29.0 kmh 30.08 in1018.6 mb 0.00 in0.0 mm 0.00 in0.0 mm 0.00 in0.0 mm
07:05 PM 29.4°F-1.4°C 15.7°F-9.1°C 56% 16.0 mph WNW25.7 kmh WNW 16.0 mph25.7 kmh 30.09 in1019.0 mb 0.00 in0.0 mm 0.00 in0.0 mm 0.00 in0.0 mm
07:10 PM 29.3°F-1.5°C 14.7°F-9.6°C 54% 16.0 mph NNW25.7 kmh NNW 17.0 mph27.4 kmh 30.09 in1019.0 mb 0.00 in0.0 mm 0.00 in0.0 mm 0.00 in0.0 mm
07:15 PM 29.2°F-1.6°C 15.1°F-9.4°C 55% 10.0 mph NW16.1 kmh NW 17.0 mph27.4 kmh 30.09 in1019.0 mb 0.00 in0.0 mm 0.00 in0.0 mm 0.00 in0.0 mm
07:20 PM 29.0°F-1.7°C 15.3°F-9.3°C 56% 8.0 mph NW12.9 kmh NW 15.0 mph24.1 kmh 30.09 in1019.0 mb 0.00 in0.0 mm 0.00 in0.0 mm 0.00 in0.0 mm
07:25 PM 28.9°F-1.7°C 15.6°F-9.1°C 57% 10.0 mph NW16.1 kmh NW 17.0 mph27.4 kmh 30.10 in1019.3 mb 0.00 in0.0 mm 0.00 in0.0 mm 0.00 in0.0 mm
07:30 PM 28.7°F-1.8°C 15.4°F-9.2°C 57% 8.0 mph WNW12.9 kmh WNW 17.0 mph27.4 kmh 30.10 in1019.3 mb 0.00 in0.0 mm 0.00 in0.0 mm 0.00 in0.0 mm
07:35 PM 28.6°F-1.9°C 15.7°F-9.1°C 58% 15.0 mph NNW24.1 kmh NNW 16.0 mph25.7 kmh 30.10 in1019.3 mb 0.00 in0.0 mm 0.00 in0.0 mm 0.00 in0.0 mm
07:40 PM 28.4°F-2.0°C 15.5°F-9.2°C 58% 8.0 mph NW12.9 kmh NW 16.0 mph25.7 kmh 30.10 in1019.3 mb 0.00 in0.0 mm 0.00 in0.0 mm 0.00 in0.0 mm
07:45 PM 28.3°F-2.1°C 15.0°F-9.4°C 57% 5.0 mph NNW8.0 kmh NNW 16.0 mph25.7 kmh 30.11 in1019.6 mb 0.00 in0.0 mm 0.00 in0.0 mm 0.00 in0.0 mm
07:50 PM 28.1°F-2.2°C 15.2°F-9.3°C 58% 8.0 mph N12.9 kmh N 17.0 mph27.4 kmh 30.11 in1019.6 mb 0.00 in0.0 mm 0.00 in0.0 mm 0.00 in0.0 mm
07:55 PM 27.9°F-2.3°C 15.1°F-9.4°C 58% 10.0 mph NW16.1 kmh NW 17.0 mph27.4 kmh 30.11 in1019.6 mb 0.00 in0.0 mm 0.00 in0.0 mm 0.00 in0.0 mm
08:00 PM 27.7°F-2.4°C 15.3°F-9.3°C 59% 8.0 mph NW12.9 kmh NW 17.0 mph27.4 kmh 30.12 in1020.0 mb 0.00 in0.0 mm 0.00 in0.0 mm 0.00 in0.0 mm
08:05 PM 27.5°F-2.5°C 15.1°F-9.4°C 59% 10.0 mph NW16.1 kmh NW 13.0 mph20.9 kmh 30.12 in1020.0 mb 0.00 in0.0 mm 0.00 in0.0 mm 0.00 in0.0 mm
08:10 PM 27.4°F-2.6°C 15.4°F-9.2°C 60% 11.0 mph NNW17.7 kmh NNW 15.0 mph24.1 kmh 30.12 in1020.0 mb 0.00 in0.0 mm 0.00 in0.0 mm 0.00 in0.0 mm
08:15 PM 27.3°F-2.6°C 14.9°F-9.5°C 59% 10.0 mph NNW16.1 kmh NNW 16.0 mph25.7 kmh 30.12 in1020.0 mb 0.00 in0.0 mm 0.00 in0.0 mm 0.00 in0.0 mm
08:20 PM 27.1°F-2.7°C 15.1°F-9.4°C 60% 11.0 mph NW17.7 kmh NW 15.0 mph24.1 kmh 30.12 in1020.0 mb 0.00 in0.0 mm 0.00 in0.0 mm 0.00 in0.0 mm
08:25 PM 27.0°F-2.8°C 15.4°F-9.2°C 61% 7.0 mph NNW11.3 kmh NNW 15.0 mph24.1 kmh 30.13 in1020.3 mb 0.00 in0.0 mm 0.00 in0.0 mm 0.00 in0.0 mm
08:30 PM 26.9°F-2.8°C 15.3°F-9.3°C 61% 6.0 mph NW9.7 kmh NW 15.0 mph24.1 kmh 30.13 in1020.3 mb 0.00 in0.0 mm 0.00 in0.0 mm 0.00 in0.0 mm
08:35 PM 26.7°F-2.9°C 14.7°F-9.6°C 60% 10.0 mph NNW16.1 kmh NNW 20.0 mph32.2 kmh 30.13 in1020.3 mb 0.00 in0.0 mm 0.00 in0.0 mm 0.00 in0.0 mm
08:40 PM 26.7°F-2.9°C 14.7°F-9.6°C 60% 13.0 mph WNW20.9 kmh WNW 20.0 mph32.2 kmh 30.13 in1020.3 mb 0.00 in0.0 mm 0.00 in0.0 mm 0.00 in0.0 mm
08:45 PM 26.5°F-3.1°C 14.5°F-9.7°C 60% 12.0 mph NNW19.3 kmh NNW 20.0 mph32.2 kmh 30.14 in1020.7 mb 0.00 in0.0 mm 0.00 in0.0 mm 0.00 in0.0 mm
08:50 PM 26.4°F-3.1°C 14.4°F-9.8°C 60% 11.0 mph NW17.7 kmh NW 15.0 mph24.1 kmh 30.14 in1020.7 mb 0.00 in0.0 mm 0.00 in0.0 mm 0.00 in0.0 mm
08:55 PM 26.2°F-3.2°C 14.2°F-9.9°C 60% 11.0 mph NW17.7 kmh NW 15.0 mph24.1 kmh 30.15 in1021.0 mb 0.00 in0.0 mm 0.00 in0.0 mm 0.00 in0.0 mm
09:00 PM 25.9°F-3.4°C 14.3°F-9.8°C 61% 11.0 mph NW17.7 kmh NW 15.0 mph24.1 kmh 30.15 in1021.0 mb 0.00 in0.0 mm 0.00 in0.0 mm 0.00 in0.0 mm
09:05 PM 25.7°F-3.5°C 14.1°F-9.9°C 61% 12.0 mph NW19.3 kmh NW 14.0 mph22.5 kmh 30.15 in1021.0 mb 0.00 in0.0 mm 0.00 in0.0 mm 0.00 in0.0 mm
09:10 PM 25.5°F-3.6°C 14.3°F-9.8°C 62% 9.0 mph NW14.5 kmh NW 14.0 mph22.5 kmh 30.15 in1021.0 mb 0.00 in0.0 mm 0.00 in0.0 mm 0.00 in0.0 mm
09:15 PM 25.4°F-3.7°C 14.2°F-9.9°C 62% 9.0 mph WNW14.5 kmh WNW 16.0 mph25.7 kmh 30.16 in1021.3 mb 0.00 in0.0 mm 0.00 in0.0 mm 0.00 in0.0 mm
09:20 PM 25.3°F-3.7°C 13.8°F-10.1°C 61% 9.0 mph NNW14.5 kmh NNW 13.0 mph20.9 kmh 30.16 in1021.3 mb 0.00 in0.0 mm 0.00 in0.0 mm 0.00 in0.0 mm
09:25 PM 25.2°F-3.8°C 13.7°F-10.2°C 61% 11.0 mph NW17.7 kmh NW 19.0 mph30.6 kmh 30.16 in1021.3 mb 0.00 in0.0 mm 0.00 in0.0 mm 0.00 in0.0 mm
09:30 PM 25.1°F-3.8°C 13.2°F-10.4°C 60% 8.0 mph NNW12.9 kmh NNW 22.0 mph35.4 kmh 30.16 in1021.3 mb 0.00 in0.0 mm 0.00 in0.0 mm 0.00 in0.0 mm
09:35 PM 25.1°F-3.8°C 12.8°F-10.7°C 59% 14.0 mph NW22.5 kmh NW 16.0 mph25.7 kmh 30.16 in1021.3 mb 0.00 in0.0 mm 0.00 in0.0 mm 0.00 in0.0 mm
09:40 PM 24.9°F-3.9°C 13.0°F-10.6°C 60% 11.0 mph NW17.7 kmh NW 17.0 mph27.4 kmh 30.17 in1021.7 mb 0.00 in0.0 mm 0.00 in0.0 mm 0.00 in0.0 mm
09:45 PM 24.8°F-4.0°C 12.9°F-10.6°C 60% 10.0 mph NW16.1 kmh NW 19.0 mph30.6 kmh 30.17 in1021.7 mb 0.00 in0.0 mm 0.00 in0.0 mm 0.00 in0.0 mm
09:50 PM 24.7°F-4.1°C 12.8°F-10.7°C 60% 12.0 mph NW19.3 kmh NW 21.0 mph33.8 kmh 30.17 in1021.7 mb 0.00 in0.0 mm 0.00 in0.0 mm 0.00 in0.0 mm
09:55 PM 24.6°F-4.1°C 12.7°F-10.7°C 60% 13.0 mph NW20.9 kmh NW 21.0 mph33.8 kmh 30.17 in1021.7 mb 0.00 in0.0 mm 0.00 in0.0 mm 0.00 in0.0 mm
10:00 PM 24.5°F-4.2°C 12.6°F-10.8°C 60% 13.0 mph NW20.9 kmh NW 21.0 mph33.8 kmh 30.18 in1022.0 mb 0.00 in0.0 mm 0.00 in0.0 mm 0.00 in0.0 mm
10:05 PM 24.4°F-4.2°C 12.5°F-10.8°C 60% 18.0 mph NNW29.0 kmh NNW 19.0 mph30.6 kmh 30.17 in1021.7 mb 0.00 in0.0 mm 0.00 in0.0 mm 0.00 in0.0 mm
10:10 PM 24.4°F-4.2°C 12.1°F-11.1°C 59% 13.0 mph NW20.9 kmh NW 20.0 mph32.2 kmh 30.17 in1021.7 mb 0.00 in0.0 mm 0.00 in0.0 mm 0.00 in0.0 mm
10:15 PM 24.4°F-4.2°C 12.1°F-11.1°C 59% 18.0 mph NW29.0 kmh NW 20.0 mph32.2 kmh 30.18 in1022.0 mb 0.00 in0.0 mm 0.00 in0.0 mm 0.00 in0.0 mm
10:20 PM 24.2°F-4.3°C 12.3°F-10.9°C 60% 11.0 mph NW17.7 kmh NW 20.0 mph32.2 kmh 30.18 in1022.0 mb 0.00 in0.0 mm 0.00 in0.0 mm 0.00 in0.0 mm
10:25 PM 24.2°F-4.3°C 12.3°F-10.9°C 60% 13.0 mph NW20.9 kmh NW 20.0 mph32.2 kmh 30.18 in1022.0 mb 0.00 in0.0 mm 0.00 in0.0 mm 0.00 in0.0 mm
10:30 PM 24.0°F-4.4°C 12.1°F-11.1°C 60% 13.0 mph NW20.9 kmh NW 20.0 mph32.2 kmh 30.19 in1022.4 mb 0.00 in0.0 mm 0.00 in0.0 mm 0.00 in0.0 mm
10:35 PM 24.0°F-4.4°C 12.5°F-10.8°C 61% 10.0 mph NW16.1 kmh NW 17.0 mph27.4 kmh 30.19 in1022.4 mb 0.00 in0.0 mm 0.00 in0.0 mm 0.00 in0.0 mm
10:40 PM 23.8°F-4.6°C 12.3°F-10.9°C 61% 9.0 mph NW14.5 kmh NW 17.0 mph27.4 kmh 30.19 in1022.4 mb 0.00 in0.0 mm 0.00 in0.0 mm 0.00 in0.0 mm
10:45 PM 23.7°F-4.6°C 12.6°F-10.8°C 62% 14.0 mph NW22.5 kmh NW 17.0 mph27.4 kmh 30.19 in1022.4 mb 0.00 in0.0 mm 0.00 in0.0 mm 0.00 in0.0 mm
10:50 PM 23.6°F-4.7°C 12.1°F-11.1°C 61% 12.0 mph NW19.3 kmh NW 16.0 mph25.7 kmh 30.19 in1022.4 mb 0.00 in0.0 mm 0.00 in0.0 mm 0.00 in0.0 mm
10:55 PM 23.5°F-4.7°C 12.4°F-10.9°C 62% 11.0 mph NW17.7 kmh NW 16.0 mph25.7 kmh 30.19 in1022.4 mb 0.00 in0.0 mm 0.00 in0.0 mm 0.00 in0.0 mm
11:00 PM 23.3°F-4.8°C 11.9°F-11.2°C 61% 13.0 mph NW20.9 kmh NW 18.0 mph29.0 kmh 30.19 in1022.4 mb 0.00 in0.0 mm 0.00 in0.0 mm 0.00 in0.0 mm
11:05 PM 23.2°F-4.9°C 11.8°F-11.2°C 61% 8.0 mph NW12.9 kmh NW 14.0 mph22.5 kmh 30.20 in1022.7 mb 0.00 in0.0 mm 0.00 in0.0 mm 0.00 in0.0 mm
11:10 PM 23.2°F-4.9°C 12.1°F-11.1°C 62% 13.0 mph WNW20.9 kmh WNW 17.0 mph27.4 kmh 30.20 in1022.7 mb 0.00 in0.0 mm 0.00 in0.0 mm 0.00 in0.0 mm
11:15 PM 23.1°F-4.9°C 11.7°F-11.3°C 61% 7.0 mph NW11.3 kmh NW 17.0 mph27.4 kmh 30.20 in1022.7 mb 0.00 in0.0 mm 0.00 in0.0 mm 0.00 in0.0 mm
11:20 PM 23.0°F-5.0°C 11.6°F-11.3°C 61% 8.0 mph WSW12.9 kmh WSW 14.0 mph22.5 kmh 30.20 in1022.7 mb 0.00 in0.0 mm 0.00 in0.0 mm 0.00 in0.0 mm
11:25 PM 23.0°F-5.0°C 11.9°F-11.2°C 62% 9.0 mph NW14.5 kmh NW 15.0 mph24.1 kmh 30.21 in1023.0 mb 0.00 in0.0 mm 0.00 in0.0 mm 0.00 in0.0 mm
11:30 PM 22.9°F-5.1°C 11.5°F-11.4°C 61% 9.0 mph NW14.5 kmh NW 16.0 mph25.7 kmh 30.21 in1023.0 mb 0.00 in0.0 mm 0.00 in0.0 mm 0.00 in0.0 mm
11:35 PM 22.8°F-5.1°C 11.8°F-11.2°C 62% 4.0 mph NW6.4 kmh NW 13.0 mph20.9 kmh 30.21 in1023.0 mb 0.00 in0.0 mm 0.00 in0.0 mm 0.00 in0.0 mm
11:40 PM 22.7°F-5.2°C 11.7°F-11.3°C 62% 10.0 mph NW16.1 kmh NW 13.0 mph20.9 kmh 30.21 in1023.0 mb 0.00 in0.0 mm 0.00 in0.0 mm 0.00 in0.0 mm
11:45 PM 22.6°F-5.2°C 11.6°F-11.3°C 62% 7.0 mph NW11.3 kmh NW 13.0 mph20.9 kmh 30.22 in1023.4 mb 0.00 in0.0 mm 0.00 in0.0 mm 0.00 in0.0 mm
11:50 PM 22.5°F-5.3°C 11.8°F-11.2°C 63% 6.0 mph NW9.7 kmh NW 13.0 mph20.9 kmh 30.22 in1023.4 mb 0.00 in0.0 mm 0.00 in0.0 mm 0.00 in0.0 mm
11:55 PM 22.4°F-5.3°C 11.4°F-11.4°C 62% 7.0 mph WNW11.3 kmh WNW 17.0 mph27.4 kmh 30.22 in1023.4 mb 0.00 in0.0 mm 0.00 in0.0 mm 0.00 in0.0 mm